createdAt,value
2023-07-25T00:01:20.362Z,100.00
2023-07-25T00:04:06.928Z,100.00
2023-07-25T00:06:53.464Z,100.00
2023-07-25T00:09:40.038Z,100.00
2023-07-25T00:12:26.424Z,100.00
2023-07-25T00:15:12.836Z,100.00
2023-07-25T00:17:59.362Z,100.00
2023-07-25T00:20:45.931Z,100.00
2023-07-25T00:23:32.345Z,100.00
2023-07-25T00:26:18.556Z,100.00
2023-07-25T00:29:05.619Z,100.00
2023-07-25T00:31:53.065Z,100.00
2023-07-25T00:34:39.717Z,100.00
2023-07-25T00:37:29.363Z,100.00
2023-07-25T00:40:15.806Z,100.00
2023-07-25T00:43:02.240Z,100.00
2023-07-25T00:45:49.488Z,100.00
2023-07-25T00:48:36.558Z,100.00
2023-07-25T00:51:23.582Z,100.00
2023-07-25T00:54:10.114Z,100.00
2023-07-25T00:56:56.419Z,100.00
2023-07-25T00:59:43.076Z,100.00
2023-07-25T01:02:29.654Z,100.00
2023-07-25T01:05:16.009Z,100.00
2023-07-25T01:08:02.746Z,100.00
2023-07-25T01:10:49.205Z,100.00
2023-07-25T01:13:35.647Z,100.00
2023-07-25T01:16:25.729Z,100.00
2023-07-25T01:19:12.300Z,100.00
2023-07-25T01:21:59.470Z,100.00
2023-07-25T01:24:48.482Z,100.00
2023-07-25T01:27:34.915Z,100.00
2023-07-25T01:30:21.445Z,100.00
2023-07-25T01:33:07.616Z,100.00
2023-07-25T01:35:54.132Z,100.00
2023-07-25T01:38:40.681Z,100.00
2023-07-25T01:41:27.042Z,100.00
2023-07-25T01:44:13.429Z,100.00
2023-07-25T01:46:59.830Z,100.00
2023-07-25T01:49:46.350Z,100.00
2023-07-25T01:52:33.288Z,100.00
2023-07-25T01:55:19.993Z,100.00
2023-07-25T01:58:06.159Z,100.00
2023-07-25T02:00:59.922Z,100.00
2023-07-25T02:03:46.151Z,100.00
2023-07-25T02:06:32.719Z,100.00
2023-07-25T02:09:19.308Z,100.00
2023-07-25T02:12:06.669Z,100.00
2023-07-25T02:14:53.138Z,100.00
2023-07-25T02:17:39.945Z,100.00
2023-07-25T02:20:28.233Z,100.00
2023-07-25T02:23:14.763Z,100.00
2023-07-25T02:26:02.939Z,100.00
2023-07-25T02:28:49.242Z,100.00
2023-07-25T02:31:35.753Z,100.00
2023-07-25T02:34:22.599Z,100.00
2023-07-25T02:37:08.859Z,100.00
2023-07-25T02:39:55.526Z,100.00
2023-07-25T02:42:42.709Z,100.00
2023-07-25T02:45:29.146Z,100.00
2023-07-25T02:48:16.720Z,100.00
2023-07-25T02:51:04.201Z,100.00
2023-07-25T02:53:50.516Z,100.00
2023-07-25T02:56:36.898Z,100.00
2023-07-25T02:59:23.425Z,100.00
2023-07-25T03:02:11.445Z,100.00
2023-07-25T03:04:58.174Z,100.00
2023-07-25T03:07:44.991Z,100.00
2023-07-25T03:10:31.617Z,100.00
2023-07-25T03:13:18.151Z,100.00
2023-07-25T03:16:05.036Z,100.00
2023-07-25T03:18:51.587Z,100.00
2023-07-25T03:21:38.119Z,100.00
2023-07-25T03:24:24.484Z,100.00
2023-07-25T03:27:11.153Z,100.00
2023-07-25T03:29:57.338Z,100.00
2023-07-25T03:32:44.062Z,100.00
2023-07-25T03:35:30.722Z,100.00
2023-07-25T03:38:17.240Z,100.00
2023-07-25T03:41:03.860Z,100.00
2023-07-25T03:43:49.959Z,100.00
2023-07-25T03:46:36.639Z,100.00
2023-07-25T03:49:23.047Z,100.00
2023-07-25T03:52:10.450Z,100.00
2023-07-25T03:54:56.992Z,100.00
2023-07-25T03:57:43.499Z,100.00
2023-07-25T04:00:29.972Z,100.00
2023-07-25T04:03:16.474Z,100.00
2023-07-25T04:06:02.999Z,100.00
2023-07-25T04:08:49.289Z,100.00
2023-07-25T04:11:35.820Z,100.00
2023-07-25T04:14:22.794Z,100.00
2023-07-25T04:17:09.225Z,100.00
2023-07-25T04:19:56.062Z,100.00
2023-07-25T04:22:42.587Z,100.00
2023-07-25T04:25:29.004Z,100.00
2023-07-25T04:28:15.639Z,100.00
2023-07-25T04:31:01.878Z,100.00
2023-07-25T04:33:48.251Z,100.00
2023-07-25T04:36:34.773Z,100.00
2023-07-25T04:39:21.221Z,100.00
2023-07-25T04:42:07.548Z,100.00
2023-07-25T04:44:54.883Z,100.00
2023-07-25T04:47:42.411Z,100.00
2023-07-25T04:50:28.699Z,100.00
2023-07-25T04:53:15.358Z,100.00
2023-07-25T04:56:02.563Z,100.00
2023-07-25T04:58:48.989Z,100.00
2023-07-25T05:01:36.017Z,100.00
2023-07-25T05:04:22.742Z,100.00
2023-07-25T05:07:09.200Z,100.00
2023-07-25T05:09:55.750Z,100.00
2023-07-25T05:12:42.225Z,100.00
2023-07-25T05:15:28.794Z,100.00
2023-07-25T05:18:15.424Z,100.00
2023-07-25T05:21:01.729Z,100.00
2023-07-25T05:23:48.263Z,100.00
2023-07-25T05:26:34.594Z,100.00
2023-07-25T05:29:21.344Z,100.00
2023-07-25T05:32:08.264Z,100.00
2023-07-25T05:34:54.469Z,100.00
2023-07-25T05:37:41.160Z,100.00
2023-07-25T05:40:27.849Z,100.00
2023-07-25T05:43:16.276Z,100.00
2023-07-25T05:46:03.159Z,100.00
2023-07-25T05:48:49.590Z,100.00
2023-07-25T05:51:36.126Z,100.00
2023-07-25T05:54:22.728Z,100.00
2023-07-25T05:57:09.127Z,100.00
2023-07-25T05:59:55.699Z,100.00
2023-07-25T06:02:42.276Z,100.00
2023-07-25T06:05:28.726Z,100.00
2023-07-25T06:08:15.275Z,100.00
2023-07-25T06:11:01.670Z,100.00
2023-07-25T06:13:50.279Z,100.00
2023-07-25T06:16:36.998Z,100.00
2023-07-25T06:19:23.722Z,100.00
2023-07-25T06:22:10.526Z,100.00
2023-07-25T06:24:56.850Z,100.00
2023-07-25T06:27:43.150Z,100.00
2023-07-25T06:30:29.558Z,100.00
2023-07-25T06:33:16.650Z,100.00
2023-07-25T06:36:03.040Z,100.00
2023-07-25T06:38:49.396Z,100.00
2023-07-25T06:41:36.109Z,100.00
2023-07-25T06:44:22.957Z,100.00
2023-07-25T06:47:09.244Z,100.00
2023-07-25T06:49:55.873Z,100.00
2023-07-25T06:52:42.273Z,100.00
2023-07-25T06:55:28.722Z,100.00
2023-07-25T06:58:15.252Z,100.00
2023-07-25T07:01:01.695Z,100.00
2023-07-25T07:03:50.449Z,100.00
2023-07-25T07:06:36.896Z,100.00
2023-07-25T07:09:23.431Z,100.00
2023-07-25T07:12:10.012Z,100.00
2023-07-25T07:14:56.517Z,100.00
2023-07-25T07:17:43.240Z,100.00
2023-07-25T07:20:29.494Z,100.00
2023-07-25T07:23:16.751Z,100.00
2023-07-25T07:26:03.541Z,100.00
2023-07-25T07:28:49.736Z,100.00
2023-07-25T07:31:36.314Z,100.00
2023-07-25T07:34:22.898Z,100.00
2023-07-25T07:37:09.389Z,100.00
2023-07-25T07:39:55.776Z,100.00
2023-07-25T07:42:42.381Z,100.00
2023-07-25T07:45:30.880Z,100.00
2023-07-25T07:48:17.455Z,100.00
2023-07-25T07:51:05.184Z,100.00
2023-07-25T07:53:52.050Z,100.00
2023-07-25T07:56:38.174Z,100.00
2023-07-25T07:59:24.739Z,100.00
2023-07-25T08:02:11.932Z,100.00
2023-07-25T08:04:58.608Z,100.00
2023-07-25T08:07:45.057Z,100.00
2023-07-25T08:10:31.386Z,100.00
2023-07-25T08:13:17.811Z,98.89
2023-07-25T08:16:05.690Z,98.98
2023-07-25T08:18:52.288Z,97.42
2023-07-25T08:21:39.094Z,93.23
2023-07-25T08:24:25.764Z,96.73
2023-07-25T08:27:12.101Z,92.40
2023-07-25T08:29:58.269Z,86.44
2023-07-25T08:32:44.822Z,83.70
2023-07-25T08:35:31.513Z,81.94
2023-07-25T08:38:17.951Z,82.35
2023-07-25T08:41:10.110Z,83.80
2023-07-25T08:44:02.050Z,86.48
2023-07-25T08:46:53.033Z,86.83
2023-07-25T08:49:41.723Z,88.13
2023-07-25T08:52:32.133Z,80.04
2023-07-25T08:55:19.431Z,82.33
2023-07-25T08:58:06.017Z,85.59
2023-07-25T09:03:41.211Z,83.57
2023-07-25T09:06:28.648Z,80.75
2023-07-25T09:09:14.946Z,81.43
2023-07-25T09:12:01.617Z,81.88
2023-07-25T09:14:47.994Z,86.25
2023-07-25T09:17:34.318Z,84.09
2023-07-25T09:20:21.060Z,82.19
2023-07-25T09:23:07.398Z,76.70
2023-07-25T09:26:08.065Z,76.98
2023-07-25T09:29:00.165Z,79.59
2023-07-25T09:31:47.765Z,73.99
2023-07-25T09:34:35.412Z,75.22
2023-07-25T09:37:24.117Z,75.00
2023-07-25T09:40:12.254Z,72.46
2023-07-25T09:42:58.592Z,72.38
2023-07-25T09:45:46.049Z,72.89
2023-07-25T09:48:33.812Z,73.58
2023-07-25T09:51:20.164Z,73.59
2023-07-25T09:54:09.293Z,76.41
2023-07-25T09:56:55.704Z,74.24
2023-07-25T09:59:43.211Z,71.65
2023-07-25T10:02:29.796Z,67.18
2023-07-25T10:05:16.255Z,68.13
2023-07-25T10:08:03.116Z,63.50
2023-07-25T10:10:49.643Z,65.17
2023-07-25T10:13:36.328Z,65.45
2023-07-25T10:16:23.625Z,67.70
2023-07-25T10:19:10.023Z,65.42
2023-07-25T10:21:56.604Z,64.55
2023-07-25T10:24:42.926Z,66.70
2023-07-25T10:27:29.646Z,64.03
2023-07-25T10:30:25.453Z,63.63
2023-07-25T10:33:16.704Z,60.97
2023-07-25T10:36:03.162Z,62.46
2023-07-25T10:38:49.898Z,60.04
2023-07-25T10:41:36.419Z,59.83
2023-07-25T10:44:38.410Z,63.15
2023-07-25T10:47:49.322Z,63.80
2023-07-25T10:50:44.684Z,65.44
2023-07-25T10:53:31.137Z,62.58
2023-07-25T10:56:17.683Z,64.36
2023-07-25T10:59:11.691Z,61.97
2023-07-25T11:02:00.435Z,63.40
2023-07-25T11:04:48.575Z,63.22
2023-07-25T11:07:35.437Z,63.34
2023-07-25T11:10:27.029Z,63.89
2023-07-25T11:13:14.009Z,66.01
2023-07-25T11:16:02.720Z,67.19
2023-07-25T11:18:51.033Z,66.56
2023-07-25T11:21:42.352Z,64.64
2023-07-25T11:24:28.625Z,65.12
2023-07-25T11:27:15.626Z,66.08
2023-07-25T11:30:12.245Z,65.56
2023-07-25T11:32:58.653Z,66.88
2023-07-25T11:35:45.702Z,68.06
2023-07-25T11:38:35.153Z,70.77
2023-07-25T11:41:21.735Z,72.70
2023-07-25T11:44:13.478Z,75.43
2023-07-25T11:46:59.948Z,79.94
2023-07-25T11:49:53.692Z,87.29
2023-07-25T11:52:47.001Z,100.00
2023-07-25T11:55:33.317Z,100.00
2023-07-25T11:58:20.645Z,100.00
2023-07-25T12:01:10.217Z,100.00
2023-07-25T12:03:56.837Z,100.00
2023-07-25T12:06:43.741Z,100.00
2023-07-25T12:09:30.314Z,100.00
2023-07-25T12:12:16.599Z,100.00
2023-07-25T12:15:03.907Z,100.00
2023-07-25T12:17:50.587Z,100.00
2023-07-25T12:20:52.443Z,100.00
2023-07-25T12:23:44.554Z,100.00
2023-07-25T12:26:43.764Z,100.00
2023-07-25T12:29:30.190Z,100.00
2023-07-25T12:32:16.779Z,100.00
2023-07-25T12:35:03.428Z,100.00
2023-07-25T12:37:49.553Z,100.00
2023-07-25T12:40:36.093Z,100.00
2023-07-25T12:43:22.595Z,100.00
2023-07-25T12:46:09.103Z,100.00
2023-07-25T12:48:55.746Z,100.00
2023-07-25T12:51:43.404Z,100.00
2023-07-25T12:54:29.651Z,100.00
2023-07-25T12:57:16.324Z,100.00
2023-07-25T13:00:04.904Z,100.00
2023-07-25T13:02:53.266Z,100.00
2023-07-25T13:05:39.631Z,100.00
2023-07-25T13:08:26.149Z,100.00
2023-07-25T13:11:12.838Z,100.00
2023-07-25T13:13:59.443Z,100.00
2023-07-25T13:16:45.833Z,100.00
2023-07-25T13:19:32.252Z,100.00
2023-07-25T13:22:18.724Z,100.00
2023-07-25T13:25:05.944Z,100.00
2023-07-25T13:27:52.520Z,95.93
2023-07-25T13:30:38.840Z,98.79
2023-07-25T13:33:25.297Z,100.00
2023-07-25T13:36:11.655Z,96.52
2023-07-25T13:38:58.136Z,98.17
2023-07-25T13:41:44.425Z,97.13
2023-07-25T13:44:30.876Z,91.87
2023-07-25T13:47:17.761Z,95.57
2023-07-25T13:50:04.182Z,93.76
2023-07-25T13:52:52.785Z,93.47
2023-07-25T13:55:39.225Z,99.51
2023-07-25T13:58:25.803Z,95.68
2023-07-25T14:01:12.298Z,100.00
2023-07-25T14:03:58.753Z,100.00
2023-07-25T14:06:45.615Z,99.23
2023-07-25T14:09:31.817Z,92.61
2023-07-25T14:12:18.012Z,92.49
2023-07-25T14:15:04.970Z,89.57
2023-07-25T14:17:51.472Z,91.31
2023-07-25T14:20:39.333Z,82.95
2023-07-25T14:23:25.847Z,84.64
2023-07-25T14:26:12.230Z,75.37
2023-07-25T14:28:59.220Z,80.20
2023-07-25T14:31:45.845Z,80.58
2023-07-25T14:34:32.269Z,81.05
2023-07-25T14:37:19.033Z,70.92
2023-07-25T14:40:07.398Z,75.08
2023-07-25T14:42:54.172Z,73.81
2023-07-25T14:45:40.410Z,80.53
2023-07-25T14:48:27.014Z,82.80
2023-07-25T14:51:13.452Z,83.25
2023-07-25T14:54:00.011Z,78.08
2023-07-25T14:56:46.450Z,85.15
2023-07-25T14:59:33.154Z,84.16
2023-07-25T15:02:19.885Z,86.79
2023-07-25T15:05:06.805Z,88.12
2023-07-25T15:07:54.059Z,90.31
2023-07-25T15:10:41.635Z,92.89
2023-07-25T15:13:28.016Z,93.06
2023-07-25T15:16:14.634Z,93.31
2023-07-25T15:19:00.904Z,97.59
2023-07-25T15:21:47.600Z,98.76
2023-07-25T15:24:33.874Z,96.20
2023-07-25T15:27:20.985Z,95.92
2023-07-25T15:30:08.229Z,89.71
2023-07-25T15:32:54.764Z,92.17
2023-07-25T15:35:41.002Z,90.62
2023-07-25T15:38:27.262Z,93.66
2023-07-25T15:41:13.813Z,94.85
2023-07-25T15:44:00.024Z,95.20
2023-07-25T15:46:46.846Z,98.39
2023-07-25T15:49:33.290Z,99.54
2023-07-25T15:52:19.588Z,97.11
2023-07-25T15:55:06.318Z,100.00
2023-07-25T15:57:52.991Z,100.00
2023-07-25T16:00:39.622Z,100.00
2023-07-25T16:03:25.915Z,100.00
2023-07-25T16:06:12.546Z,100.00
2023-07-25T16:08:59.128Z,100.00
2023-07-25T16:11:45.485Z,100.00
2023-07-25T16:14:31.794Z,100.00
2023-07-25T16:17:18.505Z,100.00
2023-07-25T16:20:05.775Z,100.00
2023-07-25T16:22:51.975Z,100.00
2023-07-25T16:25:38.572Z,100.00
2023-07-25T16:28:25.567Z,100.00
2023-07-25T16:31:31.025Z,100.00
2023-07-25T16:34:18.042Z,100.00
2023-07-25T16:37:04.822Z,100.00
2023-07-25T16:39:51.300Z,100.00
2023-07-25T16:42:38.274Z,100.00
2023-07-25T16:45:24.617Z,100.00
2023-07-25T16:48:10.927Z,100.00
2023-07-25T16:50:57.076Z,100.00
2023-07-25T16:53:43.719Z,100.00
2023-07-25T16:56:30.480Z,100.00
2023-07-25T16:59:16.950Z,100.00
2023-07-25T17:02:03.397Z,100.00
2023-07-25T17:04:54.142Z,100.00
2023-07-25T17:07:40.564Z,100.00
2023-07-25T17:10:27.249Z,100.00
2023-07-25T17:13:15.095Z,100.00
2023-07-25T17:16:02.877Z,100.00
2023-07-25T17:18:49.130Z,100.00
2023-07-25T17:21:40.436Z,100.00
2023-07-25T17:24:29.418Z,100.00
2023-07-25T17:27:15.801Z,100.00
2023-07-25T17:30:02.301Z,100.00
2023-07-25T17:32:49.090Z,100.00
2023-07-25T17:35:38.301Z,100.00
2023-07-25T17:38:25.386Z,100.00
2023-07-25T17:41:12.287Z,100.00
2023-07-25T17:43:58.933Z,100.00
2023-07-25T17:46:45.049Z,100.00
2023-07-25T17:49:31.475Z,100.00
2023-07-25T17:52:18.033Z,100.00
2023-07-25T17:55:04.753Z,100.00
2023-07-25T17:57:51.410Z,100.00
2023-07-25T18:00:38.618Z,100.00
2023-07-25T18:03:25.019Z,100.00
2023-07-25T18:06:11.525Z,100.00
2023-07-25T18:08:58.133Z,100.00
2023-07-25T18:11:44.623Z,100.00
2023-07-25T18:14:31.349Z,100.00
2023-07-25T18:17:17.920Z,100.00
2023-07-25T18:20:04.941Z,100.00
2023-07-25T18:22:51.824Z,100.00
2023-07-25T18:25:40.214Z,100.00
2023-07-25T18:28:27.656Z,100.00
2023-07-25T18:31:14.142Z,100.00
2023-07-25T18:34:00.837Z,100.00
2023-07-25T18:36:47.379Z,100.00
2023-07-25T18:39:33.841Z,100.00
2023-07-25T18:42:20.487Z,100.00
2023-07-25T18:45:07.522Z,100.00
2023-07-25T18:47:54.066Z,100.00
2023-07-25T18:50:40.175Z,100.00
2023-07-25T18:53:26.708Z,100.00
2023-07-25T18:56:12.796Z,100.00
2023-07-25T18:58:59.157Z,100.00
2023-07-25T19:01:45.690Z,100.00
2023-07-25T19:04:31.960Z,100.00
2023-07-25T19:07:19.571Z,100.00
2023-07-25T19:10:06.419Z,100.00
2023-07-25T19:12:53.152Z,100.00
2023-07-25T19:15:39.643Z,100.00
2023-07-25T19:18:26.389Z,100.00
2023-07-25T19:21:12.502Z,100.00
2023-07-25T19:23:58.761Z,100.00
2023-07-25T19:26:45.172Z,100.00
2023-07-25T19:29:31.687Z,100.00
2023-07-25T19:32:17.997Z,100.00
2023-07-25T19:35:05.297Z,100.00
2023-07-25T19:37:52.245Z,100.00
2023-07-25T19:40:38.857Z,100.00
2023-07-25T19:43:25.117Z,100.00
2023-07-25T19:46:11.942Z,100.00
2023-07-25T19:48:58.372Z,100.00
2023-07-25T19:51:45.514Z,100.00
2023-07-25T19:54:32.243Z,100.00
2023-07-25T19:57:18.817Z,100.00
2023-07-25T20:00:06.059Z,100.00
2023-07-25T20:02:52.314Z,100.00
2023-07-25T20:05:38.673Z,100.00
2023-07-25T20:08:24.918Z,100.00
2023-07-25T20:11:11.392Z,100.00
2023-07-25T20:13:58.153Z,100.00
2023-07-25T20:16:44.562Z,100.00
2023-07-25T20:19:30.885Z,100.00
2023-07-25T20:22:17.262Z,100.00
2023-07-25T20:25:03.873Z,100.00
2023-07-25T20:27:50.127Z,100.00
2023-07-25T20:30:36.309Z,100.00
2023-07-25T20:33:22.920Z,100.00
2023-07-25T20:36:09.982Z,100.00
2023-07-25T20:38:56.567Z,100.00
2023-07-25T20:41:43.429Z,100.00
2023-07-25T20:44:29.908Z,100.00
2023-07-25T20:47:16.474Z,100.00
2023-07-25T20:50:05.222Z,100.00
2023-07-25T20:52:52.100Z,100.00
2023-07-25T20:55:38.790Z,100.00
2023-07-25T20:58:25.293Z,100.00
2023-07-25T21:01:11.792Z,100.00
2023-07-25T21:03:58.330Z,100.00
2023-07-25T21:06:44.565Z,100.00
2023-07-25T21:09:31.078Z,100.00
2023-07-25T21:12:17.667Z,100.00
2023-07-25T21:15:04.471Z,100.00
2023-07-25T21:18:02.803Z,100.00
2023-07-25T21:20:57.224Z,100.00
2023-07-25T21:23:43.495Z,100.00
2023-07-25T21:26:29.951Z,100.00
2023-07-25T21:29:16.596Z,100.00
2023-07-25T21:32:03.010Z,100.00
2023-07-25T21:34:49.382Z,100.00
2023-07-25T21:37:36.038Z,100.00
2023-07-25T21:40:22.490Z,100.00
2023-07-25T21:43:08.602Z,100.00
2023-07-25T21:45:56.346Z,100.00
2023-07-25T21:48:43.004Z,100.00
2023-07-25T21:51:29.617Z,100.00
2023-07-25T21:54:15.902Z,100.00
2023-07-25T21:57:02.345Z,100.00
2023-07-25T21:59:48.910Z,100.00
2023-07-25T22:02:35.090Z,100.00
2023-07-25T22:05:21.552Z,100.00
2023-07-25T22:08:09.274Z,100.00
2023-07-25T22:10:56.204Z,100.00
2023-07-25T22:13:42.537Z,100.00
2023-07-25T22:16:28.751Z,100.00
2023-07-25T22:19:15.037Z,100.00
2023-07-25T22:22:01.592Z,100.00
2023-07-25T22:24:47.832Z,100.00
2023-07-25T22:27:34.361Z,100.00
2023-07-25T22:30:21.206Z,100.00
2023-07-25T22:33:07.582Z,100.00
2023-07-25T22:35:54.183Z,100.00
2023-07-25T22:38:40.399Z,100.00
2023-07-25T22:41:26.635Z,100.00
2023-07-25T22:44:12.898Z,100.00
2023-07-25T22:46:59.394Z,100.00
2023-07-25T22:49:51.070Z,100.00
2023-07-25T22:52:37.626Z,100.00
2023-07-25T22:55:24.059Z,100.00
2023-07-25T22:58:10.305Z,100.00
2023-07-25T23:00:56.958Z,100.00
2023-07-25T23:03:43.554Z,100.00
2023-07-25T23:06:30.424Z,100.00
2023-07-25T23:09:18.200Z,100.00
2023-07-25T23:12:04.653Z,100.00
2023-07-25T23:14:51.178Z,100.00
2023-07-25T23:17:37.456Z,100.00
2023-07-25T23:20:23.897Z,100.00
2023-07-25T23:23:10.099Z,100.00
2023-07-25T23:25:56.512Z,100.00
2023-07-25T23:28:42.793Z,100.00
2023-07-25T23:31:29.589Z,100.00
2023-07-25T23:34:17.635Z,100.00
2023-07-25T23:37:04.492Z,100.00
2023-07-25T23:39:50.774Z,100.00
2023-07-25T23:42:36.996Z,100.00
2023-07-25T23:45:23.486Z,100.00
2023-07-25T23:48:09.618Z,100.00
2023-07-25T23:50:56.166Z,100.00
2023-07-25T23:53:42.680Z,100.00
2023-07-25T23:56:29.161Z,100.00
2023-07-25T23:59:15.842Z,100.00
